createdAt,value
2024-01-31T00:00:27.876Z,16.3
2024-01-31T00:01:44.182Z,20.4
2024-01-31T00:03:00.484Z,18
2024-01-31T00:04:16.738Z,17.7
2024-01-31T00:05:33.036Z,18.2
2024-01-31T00:06:49.331Z,18.1
2024-01-31T00:08:05.653Z,17.6
2024-01-31T00:09:21.948Z,17.4
2024-01-31T00:10:38.206Z,16
2024-01-31T00:11:54.528Z,16.1
2024-01-31T00:13:10.831Z,16.1
2024-01-31T00:14:27.098Z,15
2024-01-31T00:15:43.422Z,17.2
2024-01-31T00:16:58.719Z,15.6
2024-01-31T00:18:14.985Z,14.7
2024-01-31T00:19:31.309Z,16.8
2024-01-31T00:20:47.570Z,19.7
2024-01-31T00:22:03.864Z,17.6
2024-01-31T00:23:20.154Z,15.9
2024-01-31T00:24:36.461Z,17.1
2024-01-31T00:25:52.754Z,17.2
2024-01-31T00:27:09.037Z,16.4
2024-01-31T00:28:25.362Z,19.2
2024-01-31T00:29:41.622Z,16.3
2024-01-31T00:30:57.916Z,18.6
2024-01-31T00:32:14.240Z,19
2024-01-31T00:33:29.532Z,21.8
2024-01-31T00:34:45.841Z,18.1
2024-01-31T00:36:02.103Z,14.9
2024-01-31T00:37:18.425Z,16.5
2024-01-31T00:38:34.689Z,17.2
2024-01-31T00:39:50.988Z,16.4
2024-01-31T00:41:07.306Z,19.5
2024-01-31T00:42:23.582Z,15.3
2024-01-31T00:43:39.871Z,18.3
2024-01-31T00:44:56.168Z,17
2024-01-31T00:46:12.452Z,16.3
2024-01-31T00:47:28.775Z,16.1
2024-01-31T00:48:45.073Z,15.3
2024-01-31T00:50:00.392Z,16
2024-01-31T00:51:16.641Z,17.6
2024-01-31T00:52:32.970Z,19.8
2024-01-31T00:53:49.260Z,16.9
2024-01-31T00:55:05.527Z,17.6
2024-01-31T00:56:21.842Z,15.5
2024-01-31T00:57:38.112Z,19.5
2024-01-31T00:58:54.428Z,18.4
2024-01-31T01:00:10.694Z,18.5
2024-01-31T01:01:26.986Z,19.3
2024-01-31T01:02:43.306Z,16.3
2024-01-31T01:03:59.602Z,20.2
2024-01-31T01:05:15.901Z,18.1
2024-01-31T01:06:31.208Z,17.8
2024-01-31T01:07:47.507Z,18.2
2024-01-31T01:09:03.777Z,16.9
2024-01-31T01:10:20.086Z,17.2
2024-01-31T01:11:36.392Z,15.5
2024-01-31T01:12:52.639Z,18.8
2024-01-31T01:14:08.961Z,15
2024-01-31T01:15:25.237Z,15.8
2024-01-31T01:16:41.000Z,17.4
2024-01-31T01:17:57.848Z,17.8
2024-01-31T01:19:14.000Z,17.2
2024-01-31T01:20:30.412Z,17.6
2024-01-31T01:21:46.735Z,18.9
2024-01-31T01:23:02.030Z,20.3
2024-01-31T01:24:18.298Z,21.3
2024-01-31T01:25:34.620Z,17.2
2024-01-31T01:26:50.887Z,17.9
2024-01-31T01:28:07.178Z,18.5
2024-01-31T01:29:23.479Z,16.9
2024-01-31T01:30:39.765Z,20.5
2024-01-31T01:31:56.072Z,16.9
2024-01-31T01:33:12.386Z,19
2024-01-31T01:34:28.660Z,16.2
2024-01-31T01:35:44.945Z,17.1
2024-01-31T01:37:01.235Z,17.9
2024-01-31T01:38:17.561Z,17.3
2024-01-31T01:39:32.867Z,17.7
2024-01-31T01:40:49.164Z,19.4
2024-01-31T01:42:05.433Z,17.2
2024-01-31T01:43:21.718Z,16.3
2024-01-31T01:44:38.006Z,18.6
2024-01-31T01:45:54.332Z,19.2
2024-01-31T01:47:10.629Z,18.7
2024-01-31T01:48:26.905Z,17.1
2024-01-31T01:49:43.214Z,19.2
2024-01-31T01:50:59.477Z,17.8
2024-01-31T01:52:15.809Z,17.5
2024-01-31T01:53:32.064Z,16.9
2024-01-31T01:54:48.391Z,20.4
2024-01-31T01:56:03.669Z,19.6
2024-01-31T01:57:19.987Z,18.8
2024-01-31T01:58:36.260Z,19.2
2024-01-31T01:59:52.545Z,18.5
2024-01-31T02:01:08.877Z,19.9
2024-01-31T02:02:25.161Z,18.3
2024-01-31T02:03:41.467Z,16
2024-01-31T02:04:57.729Z,17.2
2024-01-31T02:06:14.023Z,19.1
2024-01-31T02:07:30.334Z,18.7
2024-01-31T02:08:46.633Z,16.6
2024-01-31T02:10:02.933Z,18.7
2024-01-31T02:11:19.214Z,17.8
2024-01-31T02:12:35.639Z,21.5
2024-01-31T02:13:51.933Z,19.1
2024-01-31T02:15:08.235Z,18.1
2024-01-31T02:16:24.514Z,20.8
2024-01-31T02:17:40.807Z,18.8
2024-01-31T02:18:57.104Z,20.3
2024-01-31T02:20:13.360Z,21.8
2024-01-31T02:21:29.685Z,19.2
2024-01-31T02:22:45.954Z,20
2024-01-31T02:24:02.277Z,24.7
2024-01-31T02:25:18.536Z,20.1
2024-01-31T02:26:34.861Z,22.4
2024-01-31T02:27:51.125Z,23.5
2024-01-31T02:29:06.433Z,21.4
2024-01-31T02:30:22.760Z,21.1
2024-01-31T02:31:39.030Z,19
2024-01-31T02:32:55.310Z,22.9
2024-01-31T02:34:11.643Z,22.3
2024-01-31T02:35:27.000Z,22.6
2024-01-31T02:36:44.197Z,21.5
2024-01-31T02:38:00.525Z,19.2
2024-01-31T02:39:16.782Z,21.5
2024-01-31T02:40:33.069Z,21.5
2024-01-31T02:41:49.398Z,21.6
2024-01-31T02:43:05.695Z,22.2
2024-01-31T02:44:21.957Z,20.3
2024-01-31T02:45:37.260Z,19.2
2024-01-31T02:46:53.559Z,21
2024-01-31T02:48:09.846Z,22.6
2024-01-31T02:49:26.172Z,22.5
2024-01-31T02:50:42.467Z,19.7
2024-01-31T02:51:58.735Z,21.1
2024-01-31T02:53:15.027Z,18.9
2024-01-31T02:54:31.310Z,22.4
2024-01-31T02:55:47.615Z,21.5
2024-01-31T02:57:03.934Z,23.9
2024-01-31T02:58:20.201Z,21.5
2024-01-31T02:59:36.531Z,19.8
2024-01-31T03:00:52.776Z,18.6
2024-01-31T03:02:08.090Z,18.9
2024-01-31T03:03:24.417Z,16.9
2024-01-31T03:04:40.726Z,18.7
2024-01-31T03:05:56.972Z,19.1
2024-01-31T03:07:13.263Z,17.9
2024-01-31T03:08:29.568Z,19.6
2024-01-31T03:09:45.847Z,20.4
2024-01-31T03:11:02.178Z,20.2
2024-01-31T03:12:18.469Z,17.9
2024-01-31T03:13:34.763Z,15.8
2024-01-31T03:14:51.054Z,18
2024-01-31T03:16:07.323Z,16.9
2024-01-31T03:17:23.643Z,14.8
2024-01-31T03:18:38.926Z,14.9
2024-01-31T03:19:55.210Z,16.6
2024-01-31T03:21:11.539Z,16.4
2024-01-31T03:22:27.829Z,17.8
2024-01-31T03:23:44.087Z,17.7
2024-01-31T03:25:00.421Z,15.4
2024-01-31T03:26:15.699Z,19
2024-01-31T03:27:32.030Z,18.6
2024-01-31T03:28:48.290Z,16.9
2024-01-31T03:30:04.612Z,18.7
2024-01-31T03:31:20.914Z,15.7
2024-01-31T03:32:37.172Z,16.9
2024-01-31T03:33:53.469Z,16.7
2024-01-31T03:35:09.786Z,16.1
2024-01-31T03:36:26.053Z,16.5
2024-01-31T03:37:42.379Z,13.9
2024-01-31T03:38:58.663Z,15.7
2024-01-31T03:40:14.962Z,17.1
2024-01-31T03:41:31.220Z,16.1
2024-01-31T03:42:46.570Z,18.3
2024-01-31T03:44:02.821Z,15.8
2024-01-31T03:45:19.119Z,17.5
2024-01-31T03:46:35.409Z,18.4
2024-01-31T03:47:51.702Z,17.4
2024-01-31T03:49:08.002Z,19.6
2024-01-31T03:50:24.289Z,21.1
2024-01-31T03:51:40.611Z,22.1
2024-01-31T03:52:56.916Z,22.3
2024-01-31T03:54:13.199Z,22.4
2024-01-31T03:55:29.502Z,23.1
2024-01-31T03:56:45.757Z,20.2
2024-01-31T03:58:02.046Z,25
2024-01-31T03:59:17.396Z,24.1
2024-01-31T04:00:33.651Z,25.5
2024-01-31T04:01:49.979Z,26.7
2024-01-31T04:03:06.236Z,23.1
2024-01-31T04:04:22.566Z,24.7
2024-01-31T04:05:38.857Z,25.5
2024-01-31T04:06:55.156Z,26.1
2024-01-31T04:08:11.419Z,26.8
2024-01-31T04:09:27.712Z,26.5
2024-01-31T04:10:44.040Z,26.8
2024-01-31T04:12:00.286Z,27.1
2024-01-31T04:13:16.000Z,26.8
2024-01-31T04:14:32.872Z,27.5
2024-01-31T04:15:48.191Z,24.6
2024-01-31T04:17:04.524Z,27.8
2024-01-31T04:18:20.771Z,25
2024-01-31T04:19:37.105Z,27.9
2024-01-31T04:20:53.394Z,24.9
2024-01-31T04:22:09.688Z,30.9
2024-01-31T04:23:25.943Z,27.9
2024-01-31T04:24:42.253Z,27.1
2024-01-31T04:25:58.530Z,27.1
2024-01-31T04:27:14.825Z,26.7
2024-01-31T04:28:31.153Z,25.7
2024-01-31T04:29:47.409Z,26.4
2024-01-31T04:31:03.744Z,29.5
2024-01-31T04:32:19.020Z,29.2
2024-01-31T04:33:35.348Z,28.6
2024-01-31T04:34:51.640Z,27
2024-01-31T04:36:07.940Z,26.8
2024-01-31T04:37:24.223Z,28.8
2024-01-31T04:38:40.516Z,29.9
2024-01-31T04:39:56.821Z,28.4
2024-01-31T04:41:13.102Z,26.2
2024-01-31T04:42:29.372Z,27.1
2024-01-31T04:43:45.000Z,26.9
2024-01-31T04:45:01.983Z,28
2024-01-31T04:46:18.290Z,26.2
2024-01-31T04:47:34.570Z,28.1
2024-01-31T04:48:49.850Z,26.6
2024-01-31T04:50:06.145Z,24.9
2024-01-31T04:51:22.466Z,28.6
2024-01-31T04:52:38.771Z,27.5
2024-01-31T04:53:55.052Z,28.9
2024-01-31T04:55:11.350Z,28.9
2024-01-31T04:56:27.608Z,28.9
2024-01-31T04:57:43.936Z,24.8
2024-01-31T04:59:00.235Z,24.9
2024-01-31T05:00:16.483Z,28.8
2024-01-31T05:01:32.776Z,24.5
2024-01-31T05:02:49.111Z,27.6
2024-01-31T05:04:05.367Z,25.6
2024-01-31T05:05:20.709Z,29.4
2024-01-31T05:06:36.965Z,28.8
2024-01-31T05:07:53.000Z,24.9
2024-01-31T05:09:09.595Z,27.7
2024-01-31T05:10:25.862Z,27.8
2024-01-31T05:11:42.176Z,27.5
2024-01-31T05:12:58.441Z,28.8
2024-01-31T05:14:14.772Z,33.3
2024-01-31T05:15:31.060Z,29.5
2024-01-31T05:16:47.312Z,29.2
2024-01-31T05:18:03.654Z,25.6
2024-01-31T05:19:19.936Z,26.2
2024-01-31T05:20:36.192Z,25.9
2024-01-31T05:21:51.544Z,24.3
2024-01-31T05:23:07.841Z,27.8
2024-01-31T05:24:24.096Z,21.9
2024-01-31T05:25:40.385Z,25.3
2024-01-31T05:26:56.681Z,25.2
2024-01-31T05:28:12.981Z,26.4
2024-01-31T05:29:29.261Z,22.9
2024-01-31T05:30:45.596Z,20.3
2024-01-31T05:32:01.884Z,21.3
2024-01-31T05:33:18.180Z,21.5
2024-01-31T05:34:34.431Z,19.7
2024-01-31T05:35:50.725Z,19.2
2024-01-31T05:37:07.066Z,20.4
2024-01-31T05:38:22.373Z,19.5
2024-01-31T05:39:38.670Z,19.6
2024-01-31T05:40:54.956Z,21.4
2024-01-31T05:42:11.252Z,17.8
2024-01-31T05:43:27.545Z,17.1
2024-01-31T05:44:43.833Z,16.9
2024-01-31T05:46:00.095Z,16.3
2024-01-31T05:47:16.420Z,12.7
2024-01-31T05:48:32.673Z,10.2
2024-01-31T05:49:49.006Z,13.5
2024-01-31T05:51:05.311Z,10.3
2024-01-31T05:52:21.595Z,10.8
2024-01-31T05:53:37.894Z,10.9
2024-01-31T05:54:53.201Z,10.8
2024-01-31T05:56:09.496Z,9.1
2024-01-31T05:57:25.750Z,9.5
2024-01-31T05:58:42.000Z,10.1
2024-01-31T05:59:58.333Z,9.1
2024-01-31T06:01:14.666Z,10.7
2024-01-31T06:02:30.955Z,9.1
2024-01-31T06:03:47.265Z,9.5
2024-01-31T06:05:03.552Z,10.6
2024-01-31T06:06:19.834Z,8.8
2024-01-31T06:07:36.090Z,9.5
2024-01-31T06:08:52.425Z,9.5
2024-01-31T06:10:08.724Z,8.1
2024-01-31T06:11:23.993Z,8.5
2024-01-31T06:12:40.280Z,7.7
2024-01-31T06:13:56.623Z,9.5
2024-01-31T06:15:12.908Z,10.3
2024-01-31T06:16:29.000Z,10.7
2024-01-31T06:17:45.493Z,8.8
2024-01-31T06:19:01.792Z,8.8
2024-01-31T06:20:18.038Z,9.6
2024-01-31T06:21:34.377Z,7.7
2024-01-31T06:22:50.668Z,8.7
2024-01-31T06:24:06.924Z,8.8
2024-01-31T06:25:23.222Z,11.4
2024-01-31T06:26:39.544Z,8.6
2024-01-31T06:27:54.822Z,9.8
2024-01-31T06:29:11.053Z,8.3
2024-01-31T06:30:27.402Z,8.8
2024-01-31T06:31:43.601Z,8.7
2024-01-31T06:32:59.878Z,9.9
2024-01-31T06:34:16.086Z,7.9
2024-01-31T06:35:32.410Z,8.5
2024-01-31T06:36:48.621Z,10.2
2024-01-31T06:38:04.861Z,8.6
2024-01-31T06:39:21.164Z,8.5
2024-01-31T06:40:37.460Z,10.4
2024-01-31T06:41:53.664Z,7.9
2024-01-31T06:43:09.940Z,9.9
2024-01-31T06:44:25.162Z,9.1
2024-01-31T06:45:41.435Z,7.4
2024-01-31T06:46:57.669Z,10
2024-01-31T06:48:13.877Z,7.9
2024-01-31T06:49:30.109Z,7.9
2024-01-31T06:50:46.394Z,8.1
2024-01-31T06:52:02.599Z,7.4
2024-01-31T06:53:18.830Z,6.6
2024-01-31T06:54:35.064Z,8.2
2024-01-31T06:55:51.308Z,7.3
2024-01-31T06:57:07.596Z,8.1
2024-01-31T06:58:23.833Z,8.4
2024-01-31T06:59:40.061Z,9.3
2024-01-31T07:00:55.281Z,7.6
2024-01-31T07:02:11.513Z,8.1
2024-01-31T07:03:27.799Z,7.8
2024-01-31T07:04:44.038Z,7.8
2024-01-31T07:06:00.245Z,7.4
2024-01-31T07:07:16.534Z,8.1
2024-01-31T07:08:32.765Z,9.6
2024-01-31T07:09:49.007Z,7.9
2024-01-31T07:11:05.203Z,8.6
2024-01-31T07:12:21.475Z,6.9
2024-01-31T07:13:37.671Z,12
2024-01-31T07:14:53.950Z,7.4
2024-01-31T07:16:10.190Z,7.9
2024-01-31T07:17:25.449Z,9.6
2024-01-31T07:18:41.690Z,8.3
2024-01-31T07:19:57.937Z,9.6
2024-01-31T07:21:14.166Z,8.3
2024-01-31T07:22:30.363Z,8.2
2024-01-31T07:23:46.604Z,9.3
2024-01-31T07:25:02.846Z,8.7
2024-01-31T07:26:19.086Z,7.7
2024-01-31T07:27:35.328Z,7.5
2024-01-31T07:28:51.558Z,8.3
2024-01-31T07:30:07.810Z,9.9
2024-01-31T07:31:24.080Z,8.8
2024-01-31T07:32:40.275Z,9
2024-01-31T07:33:55.576Z,9.7
2024-01-31T07:35:11.827Z,8.2
2024-01-31T07:36:28.052Z,10.8
2024-01-31T07:37:44.254Z,9.9
2024-01-31T07:39:00.495Z,10.8
2024-01-31T07:40:16.771Z,9.6
2024-01-31T07:41:32.000Z,9.3
2024-01-31T07:42:48.282Z,8.7
2024-01-31T07:44:04.510Z,8.5
2024-01-31T07:45:20.765Z,9.9
2024-01-31T07:46:36.949Z,9
2024-01-31T07:47:53.240Z,9
2024-01-31T07:49:09.439Z,8.8
2024-01-31T07:50:25.673Z,9.5
2024-01-31T07:51:41.965Z,8.8
2024-01-31T07:52:58.185Z,9.4
2024-01-31T07:54:14.393Z,9.5
2024-01-31T07:55:30.624Z,8.3
2024-01-31T07:56:46.910Z,7.4
2024-01-31T07:58:02.120Z,8.6
2024-01-31T07:59:18.402Z,10.2
2024-01-31T08:00:34.594Z,8.8
2024-01-31T08:01:50.881Z,8.7
2024-01-31T08:03:07.073Z,9.7
2024-01-31T08:04:23.327Z,8.4
2024-01-31T08:05:39.615Z,12.6
2024-01-31T08:06:55.791Z,12.7
2024-01-31T08:08:12.029Z,9.4
2024-01-31T08:09:28.330Z,10.1
2024-01-31T08:10:44.567Z,9.8
2024-01-31T08:12:00.799Z,11.3
2024-01-31T08:13:16.987Z,8.2
2024-01-31T08:14:32.288Z,9.8
2024-01-31T08:15:48.533Z,12
2024-01-31T08:17:04.780Z,9.3
2024-01-31T08:18:20.972Z,11.3
2024-01-31T08:19:37.203Z,9.4
2024-01-31T08:20:53.497Z,11.2
2024-01-31T08:22:09.737Z,9.8
2024-01-31T08:23:25.967Z,9.4
2024-01-31T08:24:42.208Z,10.1
2024-01-31T08:25:58.447Z,8.3
2024-01-31T08:27:14.643Z,9.2
2024-01-31T08:28:30.877Z,8.6
2024-01-31T08:29:47.123Z,10.2
2024-01-31T08:31:02.422Z,10.7
2024-01-31T08:32:18.629Z,9.8
2024-01-31T08:33:34.909Z,9.1
2024-01-31T08:34:51.141Z,8
2024-01-31T08:36:07.329Z,12.1
2024-01-31T08:37:23.614Z,9.6
2024-01-31T08:38:39.826Z,11.2
2024-01-31T08:39:56.102Z,8.8
2024-01-31T08:41:12.335Z,8.7
2024-01-31T08:42:28.581Z,9.5
2024-01-31T08:43:44.772Z,8
2024-01-31T08:45:01.058Z,8.8
2024-01-31T08:46:17.294Z,6.5
2024-01-31T08:47:32.556Z,8.8
2024-01-31T08:48:48.748Z,8
2024-01-31T08:50:04.981Z,8
2024-01-31T08:51:21.220Z,7
2024-01-31T08:52:37.510Z,7.3
2024-01-31T08:53:53.745Z,7.7
2024-01-31T08:55:10.000Z,7.8
2024-01-31T08:56:26.179Z,9.5
2024-01-31T08:57:42.469Z,8.8
2024-01-31T08:58:58.682Z,7.8
2024-01-31T09:00:14.944Z,7
2024-01-31T09:01:31.172Z,9.5
2024-01-31T09:02:47.424Z,8
2024-01-31T09:04:02.678Z,6.4
2024-01-31T09:05:18.920Z,7.2
2024-01-31T09:06:35.155Z,6
2024-01-31T09:07:51.404Z,5.9
2024-01-31T09:09:07.645Z,8.8
2024-01-31T09:10:23.882Z,6.2
2024-01-31T09:11:40.122Z,11.4
2024-01-31T09:12:56.334Z,8.4
2024-01-31T09:14:12.608Z,8.7
2024-01-31T09:15:28.848Z,7
2024-01-31T09:16:45.050Z,7.6
2024-01-31T09:18:01.310Z,8.3
2024-01-31T09:19:17.552Z,9.3
2024-01-31T09:20:32.821Z,9
2024-01-31T09:21:49.061Z,10.3
2024-01-31T09:23:05.286Z,8.8
2024-01-31T09:24:21.541Z,8.4
2024-01-31T09:25:37.780Z,8.3
2024-01-31T09:26:54.014Z,11.8
2024-01-31T09:28:10.222Z,11.2
2024-01-31T09:29:26.499Z,10.8
2024-01-31T09:30:42.698Z,10.4
2024-01-31T09:31:58.939Z,10.6
2024-01-31T09:33:15.217Z,13.2
2024-01-31T09:34:31.441Z,11.8
2024-01-31T09:35:47.679Z,12.6
2024-01-31T09:37:02.909Z,14.3
2024-01-31T09:38:19.156Z,12.3
2024-01-31T09:39:35.416Z,11.6
2024-01-31T09:40:51.653Z,11.6
2024-01-31T09:42:07.898Z,12.5
2024-01-31T09:43:24.132Z,12.1
2024-01-31T09:44:40.373Z,13.4
2024-01-31T09:45:56.591Z,13.6
2024-01-31T09:47:12.864Z,16.8
2024-01-31T09:48:29.100Z,26.4
2024-01-31T09:49:45.319Z,18.1
2024-01-31T09:51:01.551Z,14.3
2024-01-31T09:52:17.000Z,11.9
2024-01-31T09:53:33.075Z,12.7
2024-01-31T09:54:49.000Z,12.7
2024-01-31T09:56:05.546Z,11.7
2024-01-31T09:57:21.767Z,13.6
2024-01-31T09:58:38.023Z,13.5
2024-01-31T09:59:54.277Z,14.1
2024-01-31T10:01:10.502Z,13.6
2024-01-31T10:02:26.742Z,13.2
2024-01-31T10:03:42.953Z,12.3
2024-01-31T10:04:59.225Z,11.5
2024-01-31T10:06:15.471Z,12.9
2024-01-31T10:07:31.703Z,11
2024-01-31T10:08:47.000Z,11.3
2024-01-31T10:10:03.164Z,11.5
2024-01-31T10:11:19.414Z,12.8
2024-01-31T10:12:35.678Z,12.9
2024-01-31T10:13:51.914Z,13.5
2024-01-31T10:15:08.151Z,12
2024-01-31T10:16:24.390Z,12.4
2024-01-31T10:17:40.631Z,13.7
2024-01-31T10:18:56.876Z,12.4
2024-01-31T10:20:13.115Z,13.8
2024-01-31T10:21:29.348Z,13.8
2024-01-31T10:22:45.605Z,13.8
2024-01-31T10:24:01.826Z,14.4
2024-01-31T10:25:18.038Z,12.7
2024-01-31T10:26:33.322Z,14.3
2024-01-31T10:27:49.538Z,13.8
2024-01-31T10:29:05.799Z,14.3
2024-01-31T10:30:22.014Z,12
2024-01-31T10:31:38.256Z,14.1
2024-01-31T10:32:54.521Z,14.6
2024-01-31T10:34:10.760Z,14.5
2024-01-31T10:35:26.999Z,15.1
2024-01-31T10:36:43.209Z,13.5
2024-01-31T10:37:59.481Z,12.8
2024-01-31T10:39:15.712Z,14.2
2024-01-31T10:40:31.936Z,11.9
2024-01-31T10:41:48.164Z,12.4
2024-01-31T10:43:03.449Z,12.1
2024-01-31T10:44:19.000Z,12.1
2024-01-31T10:45:35.900Z,12.7
2024-01-31T10:46:52.174Z,12.1
2024-01-31T10:48:08.411Z,13
2024-01-31T10:49:24.616Z,14.4
2024-01-31T10:50:40.869Z,13
2024-01-31T10:51:57.122Z,13
2024-01-31T10:53:13.374Z,16.9
2024-01-31T10:54:29.574Z,13.5
2024-01-31T10:55:45.843Z,16.1
2024-01-31T10:57:02.084Z,13.2
2024-01-31T10:58:18.298Z,11.9
2024-01-31T10:59:33.546Z,12
2024-01-31T11:00:49.783Z,10.3
2024-01-31T11:02:06.052Z,8.7
2024-01-31T11:03:22.291Z,10.9
2024-01-31T11:04:38.535Z,9.9
2024-01-31T11:05:54.741Z,9.2
2024-01-31T11:07:10.983Z,9.2
2024-01-31T11:08:27.259Z,8.1
2024-01-31T11:09:43.463Z,7.2
2024-01-31T11:10:59.701Z,7.9
2024-01-31T11:12:15.987Z,8.6
2024-01-31T11:13:32.212Z,8.6
2024-01-31T11:14:48.424Z,8.4
2024-01-31T11:16:03.706Z,6.7
2024-01-31T11:17:19.000Z,8.5
2024-01-31T11:18:36.156Z,8.7
2024-01-31T11:19:52.435Z,8
2024-01-31T11:21:08.659Z,8.4
2024-01-31T11:22:24.874Z,7.3
2024-01-31T11:23:41.138Z,7.4
2024-01-31T11:24:57.376Z,7.9
2024-01-31T11:26:13.592Z,8.6
2024-01-31T11:27:29.000Z,8.1
2024-01-31T11:28:46.095Z,7.6
2024-01-31T11:30:02.345Z,8.7
2024-01-31T11:31:18.578Z,9
2024-01-31T11:32:33.832Z,6.4
2024-01-31T11:33:50.078Z,7.1
2024-01-31T11:35:06.316Z,7.7
2024-01-31T11:36:22.555Z,7.6
2024-01-31T11:37:38.794Z,13.8
2024-01-31T11:38:54.996Z,6.7
2024-01-31T11:40:11.271Z,7.2
2024-01-31T11:41:27.517Z,6.2
2024-01-31T11:42:43.749Z,10.4
2024-01-31T11:44:00.003Z,8.2
2024-01-31T11:45:16.202Z,8
2024-01-31T11:46:32.442Z,9.8
2024-01-31T11:47:48.673Z,7.1
2024-01-31T11:49:03.930Z,7.4
2024-01-31T11:50:20.168Z,8
2024-01-31T11:51:36.439Z,7.7
2024-01-31T11:52:52.645Z,7.8
2024-01-31T11:54:08.922Z,7.1
2024-01-31T11:55:25.168Z,7.7
2024-01-31T11:56:40.422Z,7.3
2024-01-31T11:57:56.668Z,7.3
2024-01-31T11:59:12.899Z,6.7
2024-01-31T12:00:29.111Z,7.5
2024-01-31T12:01:45.342Z,7.5
2024-01-31T12:03:01.632Z,6.2
2024-01-31T12:04:17.858Z,5.5
2024-01-31T12:05:34.102Z,7.3
2024-01-31T12:06:50.336Z,6.1
2024-01-31T12:08:06.585Z,5.6
2024-01-31T12:09:22.814Z,5.7
2024-01-31T12:10:39.022Z,6.6
2024-01-31T12:11:55.300Z,6.1
2024-01-31T12:13:10.551Z,6.2
2024-01-31T12:14:26.759Z,4.9
2024-01-31T12:15:42.988Z,5.4
2024-01-31T12:16:59.271Z,4.8
2024-01-31T12:18:15.514Z,4.1
2024-01-31T12:19:31.741Z,3.9
2024-01-31T12:20:47.947Z,4.9
2024-01-31T12:22:04.184Z,4.2
2024-01-31T12:23:20.424Z,4.7
2024-01-31T12:24:36.710Z,6
2024-01-31T12:25:52.938Z,4.2
2024-01-31T12:27:09.142Z,4.6
2024-01-31T12:28:25.435Z,5.1
2024-01-31T12:29:40.688Z,3.3
2024-01-31T12:30:56.920Z,3.6
2024-01-31T12:32:13.168Z,3.3
2024-01-31T12:33:29.391Z,2.6
2024-01-31T12:34:45.613Z,4.7
2024-01-31T12:36:01.838Z,2.9
2024-01-31T12:37:18.086Z,3.8
2024-01-31T12:38:34.320Z,2.7
2024-01-31T12:39:50.560Z,2.9
2024-01-31T12:41:06.810Z,3.2
2024-01-31T12:42:23.050Z,3.4
2024-01-31T12:43:39.240Z,4.7
2024-01-31T12:44:55.525Z,2.6
2024-01-31T12:46:11.846Z,4
2024-01-31T12:47:28.127Z,3.4
2024-01-31T12:48:44.368Z,5.8
2024-01-31T12:50:00.594Z,3.4
2024-01-31T12:51:16.804Z,2.9
2024-01-31T12:52:33.070Z,4.4
2024-01-31T12:53:49.308Z,5.8
2024-01-31T12:55:05.520Z,2.9
2024-01-31T12:56:21.763Z,4.6
2024-01-31T12:57:38.030Z,3.3
2024-01-31T12:58:54.276Z,3.8
2024-01-31T13:00:10.476Z,4.9
2024-01-31T13:01:26.718Z,4.6
2024-01-31T13:02:41.978Z,6.5
2024-01-31T13:03:58.219Z,3.5
2024-01-31T13:05:14.452Z,7
2024-01-31T13:06:30.735Z,6.1
2024-01-31T13:07:46.924Z,4.3
2024-01-31T13:09:03.202Z,5.6
2024-01-31T13:10:19.414Z,5.5
2024-01-31T13:11:35.646Z,5.6
2024-01-31T13:12:51.887Z,7.4
2024-01-31T13:14:08.163Z,4.4
2024-01-31T13:15:24.374Z,3.3
2024-01-31T13:16:40.616Z,3.6
2024-01-31T13:17:56.876Z,4.1
2024-01-31T13:19:13.214Z,5.2
2024-01-31T13:20:29.479Z,3.4
2024-01-31T13:21:45.710Z,3
2024-01-31T13:23:01.922Z,5.8
2024-01-31T13:24:18.195Z,3.7
2024-01-31T13:25:34.400Z,4.8
2024-01-31T13:26:50.678Z,4.5
2024-01-31T13:28:06.912Z,4.4
2024-01-31T13:29:23.126Z,3.7
2024-01-31T13:30:39.391Z,4
2024-01-31T13:31:55.597Z,4.6
2024-01-31T13:33:11.838Z,6
2024-01-31T13:34:28.072Z,4.8
2024-01-31T13:35:43.364Z,5.3
2024-01-31T13:36:59.615Z,6.2
2024-01-31T13:38:15.839Z,5.2
2024-01-31T13:39:32.086Z,4.6
2024-01-31T13:40:48.323Z,5.6
2024-01-31T13:42:04.564Z,4.1
2024-01-31T13:43:20.801Z,4.1
2024-01-31T13:44:37.034Z,5.7
2024-01-31T13:45:53.278Z,6.6
2024-01-31T13:47:09.483Z,5
2024-01-31T13:48:25.755Z,6.1
2024-01-31T13:49:41.997Z,6.9
2024-01-31T13:50:58.201Z,8.3
2024-01-31T13:52:14.566Z,5.6
2024-01-31T13:53:30.843Z,5.5
2024-01-31T13:54:47.041Z,5.6
2024-01-31T13:56:03.311Z,4.9
2024-01-31T13:57:19.529Z,5.4
2024-01-31T13:58:35.758Z,7.3
2024-01-31T13:59:51.998Z,5.7
2024-01-31T14:01:08.276Z,3.5
2024-01-31T14:02:24.482Z,3.3
2024-01-31T14:03:40.718Z,4.1
2024-01-31T14:04:56.988Z,3.9
2024-01-31T14:06:13.208Z,4.8
2024-01-31T14:07:29.465Z,6.3
2024-01-31T14:08:44.718Z,5.5
2024-01-31T14:10:00.969Z,5.4
2024-01-31T14:11:17.173Z,4.3
2024-01-31T14:12:33.441Z,4.3
2024-01-31T14:13:49.000Z,5.1
2024-01-31T14:15:05.887Z,5.6
2024-01-31T14:16:22.170Z,5.3
2024-01-31T14:17:38.395Z,5.4
2024-01-31T14:18:54.648Z,5.5
2024-01-31T14:20:10.847Z,7.6
2024-01-31T14:21:27.112Z,7.4
2024-01-31T14:22:43.356Z,6.6
2024-01-31T14:23:59.566Z,9.3
2024-01-31T14:25:15.846Z,6.7
2024-01-31T14:26:31.063Z,8
2024-01-31T14:27:47.328Z,8.4
2024-01-31T14:29:03.569Z,4.9
2024-01-31T14:30:19.803Z,5.9
2024-01-31T14:31:36.046Z,6.3
2024-01-31T14:32:52.292Z,7.1
2024-01-31T14:34:08.498Z,6.7
2024-01-31T14:35:24.734Z,5.2
2024-01-31T14:36:41.011Z,6.5
2024-01-31T14:37:57.217Z,6.9
2024-01-31T14:39:13.486Z,5.4
2024-01-31T14:40:29.691Z,6.4
2024-01-31T14:41:45.962Z,4.6
2024-01-31T14:43:02.213Z,4.6
2024-01-31T14:44:17.428Z,5.2
2024-01-31T14:45:33.669Z,4.5
2024-01-31T14:46:49.932Z,4.6
2024-01-31T14:48:06.145Z,4.1
2024-01-31T14:49:22.420Z,7.3
2024-01-31T14:50:38.656Z,6.1
2024-01-31T14:51:54.895Z,5.7
2024-01-31T14:53:11.105Z,6.5
2024-01-31T14:54:27.376Z,4.7
2024-01-31T14:55:43.614Z,5.4
2024-01-31T14:56:59.849Z,3.5
2024-01-31T14:58:16.061Z,4.5
2024-01-31T14:59:32.303Z,6
2024-01-31T15:00:48.667Z,5.1
2024-01-31T15:02:04.923Z,5.1
2024-01-31T15:03:21.151Z,6
2024-01-31T15:04:37.385Z,3.9
2024-01-31T15:05:53.643Z,4.6
2024-01-31T15:07:09.859Z,3.9
2024-01-31T15:08:26.127Z,4.6
2024-01-31T15:09:42.350Z,5.4
2024-01-31T15:10:58.581Z,5.3
2024-01-31T15:12:14.844Z,6.1
2024-01-31T15:13:31.058Z,4.7
2024-01-31T15:14:47.323Z,4.2
2024-01-31T15:16:03.568Z,4.5
2024-01-31T15:17:18.823Z,3.8
2024-01-31T15:18:35.035Z,5.5
2024-01-31T15:19:51.291Z,5.2
2024-01-31T15:21:07.542Z,6.9
2024-01-31T15:22:23.776Z,4.3
2024-01-31T15:23:39.994Z,5
2024-01-31T15:24:56.222Z,5.4
2024-01-31T15:26:12.486Z,5.1
2024-01-31T15:27:28.730Z,5.2
2024-01-31T15:28:44.972Z,5.5
2024-01-31T15:30:01.207Z,5.7
2024-01-31T15:31:17.460Z,5.2
2024-01-31T15:32:33.662Z,6.1
2024-01-31T15:33:50.034Z,7.4
2024-01-31T15:35:06.285Z,9.3
2024-01-31T15:36:22.522Z,5.1
2024-01-31T15:37:38.740Z,6.1
2024-01-31T15:38:54.981Z,5
2024-01-31T15:40:11.229Z,4.9
2024-01-31T15:41:27.480Z,5
2024-01-31T15:42:43.708Z,6.6
2024-01-31T15:43:59.934Z,5.9
2024-01-31T15:45:16.205Z,5.3
2024-01-31T15:46:32.440Z,7.1
2024-01-31T15:47:48.676Z,5.2
2024-01-31T15:49:04.927Z,4.5
2024-01-31T15:50:21.155Z,5.1
2024-01-31T15:51:37.535Z,5.3
2024-01-31T15:52:53.758Z,6
2024-01-31T15:54:09.997Z,6.2
2024-01-31T15:55:26.241Z,5.3
2024-01-31T15:56:42.475Z,5.7
2024-01-31T15:57:58.691Z,6.1
2024-01-31T15:59:14.959Z,6.7
2024-01-31T16:00:31.204Z,5.9
2024-01-31T16:01:47.443Z,7.7
2024-01-31T16:03:03.000Z,8.1
2024-01-31T16:04:19.905Z,8.2
2024-01-31T16:05:36.140Z,10.3
2024-01-31T16:06:52.398Z,7.2
2024-01-31T16:08:07.658Z,7
2024-01-31T16:09:23.860Z,6.9
2024-01-31T16:10:40.178Z,7.4
2024-01-31T16:11:56.595Z,6.1
2024-01-31T16:13:12.812Z,6.3
2024-01-31T16:14:29.085Z,7.4
2024-01-31T16:15:45.369Z,7.8
2024-01-31T16:17:01.665Z,6.5
2024-01-31T16:18:17.957Z,6.2
2024-01-31T16:19:34.207Z,7.6
2024-01-31T16:20:50.437Z,8.3
2024-01-31T16:22:06.685Z,7.4
2024-01-31T16:23:22.944Z,7.2
2024-01-31T16:24:39.245Z,7.6
2024-01-31T16:25:55.565Z,6.1
2024-01-31T16:27:11.830Z,7.7
2024-01-31T16:28:27.162Z,6.2
2024-01-31T16:29:43.449Z,6.6
2024-01-31T16:30:59.000Z,7.2
2024-01-31T16:32:16.038Z,7.1
2024-01-31T16:33:32.316Z,8.2
2024-01-31T16:34:48.629Z,7.6
2024-01-31T16:36:04.918Z,9.7
2024-01-31T16:37:21.198Z,8
2024-01-31T16:38:37.516Z,7.1
2024-01-31T16:39:53.776Z,8.9
2024-01-31T16:41:10.000Z,8.6
2024-01-31T16:42:26.370Z,8.8
2024-01-31T16:43:42.685Z,9.4
2024-01-31T16:44:57.993Z,8.5
2024-01-31T16:46:14.285Z,7.5
2024-01-31T16:47:30.556Z,7.3
2024-01-31T16:48:46.850Z,8
2024-01-31T16:50:03.150Z,7.9
2024-01-31T16:51:19.464Z,7.6
2024-01-31T16:52:35.732Z,8.8
2024-01-31T16:53:52.050Z,8.4
2024-01-31T16:55:08.345Z,9.2
2024-01-31T16:56:24.633Z,8.3
2024-01-31T16:57:40.923Z,8.5
2024-01-31T16:58:57.203Z,9.9
2024-01-31T17:00:13.488Z,10.1
2024-01-31T17:01:28.823Z,8.3
2024-01-31T17:02:45.093Z,7.1
2024-01-31T17:04:01.417Z,8.3
2024-01-31T17:05:17.697Z,8.1
2024-01-31T17:06:34.007Z,61.1
2024-01-31T17:07:50.282Z,40.6
2024-01-31T17:09:06.592Z,46.2
2024-01-31T17:10:22.855Z,72.1
2024-01-31T17:11:39.164Z,63.5
2024-01-31T17:12:55.456Z,59
2024-01-31T17:14:11.763Z,86.1
2024-01-31T17:15:28.054Z,131.8
2024-01-31T17:16:44.325Z,46.8